createdAt,value
2022-11-12T00:00:42.211Z,4.00
2022-11-12T00:03:27.889Z,4.00
2022-11-12T00:06:14.072Z,4.00
2022-11-12T00:08:59.792Z,3.90
2022-11-12T00:11:45.720Z,4.00
2022-11-12T00:14:31.824Z,4.00
2022-11-12T00:17:17.849Z,4.10
2022-11-12T00:20:04.590Z,4.00
2022-11-12T00:22:50.757Z,4.10
2022-11-12T00:25:37.130Z,4.10
2022-11-12T00:28:23.519Z,4.10
2022-11-12T00:31:11.205Z,4.30
2022-11-12T00:33:56.891Z,4.40
2022-11-12T00:36:42.837Z,4.30
2022-11-12T00:39:28.846Z,4.30
2022-11-12T00:42:14.597Z,4.30
2022-11-12T00:45:00.486Z,4.30
2022-11-12T00:47:46.487Z,4.20
2022-11-12T00:50:32.560Z,4.10
2022-11-12T00:53:18.868Z,4.10
2022-11-12T00:56:06.502Z,4.10
2022-11-12T00:58:52.363Z,4.00
2022-11-12T01:01:39.411Z,4.00
2022-11-12T01:04:25.056Z,3.90
2022-11-12T01:07:11.417Z,3.90
2022-11-12T01:09:57.663Z,3.80
2022-11-12T01:12:43.592Z,3.80
2022-11-12T01:15:29.995Z,3.80
2022-11-12T01:18:15.901Z,3.70
2022-11-12T01:21:03.449Z,3.70
2022-11-12T01:23:49.717Z,3.80
2022-11-12T01:26:36.030Z,3.70
2022-11-12T01:29:21.759Z,3.70
2022-11-12T01:32:07.779Z,3.60
2022-11-12T01:34:53.803Z,3.50
2022-11-12T01:37:39.828Z,3.50
2022-11-12T01:40:26.135Z,3.50
2022-11-12T01:43:13.649Z,3.50
2022-11-12T01:46:02.586Z,3.50
2022-11-12T01:49:00.927Z,3.40
2022-11-12T01:51:50.717Z,3.40
2022-11-12T01:54:37.535Z,3.50
2022-11-12T01:57:41.518Z,3.50
2022-11-12T02:00:27.149Z,3.50
2022-11-12T02:03:21.920Z,3.70
2022-11-12T02:06:11.457Z,3.80
2022-11-12T02:08:57.619Z,3.90
2022-11-12T02:11:44.016Z,4.10
2022-11-12T02:14:30.563Z,4.20
2022-11-12T02:17:16.704Z,4.30
2022-11-12T02:20:03.136Z,4.30
2022-11-12T02:22:48.914Z,4.30
2022-11-12T02:25:35.821Z,4.40
2022-11-12T02:28:21.831Z,4.40
2022-11-12T02:31:07.832Z,4.40
2022-11-12T02:33:53.643Z,4.30
2022-11-12T02:36:39.687Z,4.30
2022-11-12T02:39:25.337Z,4.20
2022-11-12T02:42:11.336Z,4.30
2022-11-12T02:44:56.900Z,4.50
2022-11-12T02:47:42.977Z,4.60
2022-11-12T02:50:28.784Z,4.60
2022-11-12T02:53:14.658Z,4.50
2022-11-12T02:56:01.223Z,4.50
2022-11-12T02:58:46.874Z,4.50
2022-11-12T03:01:32.821Z,4.60
2022-11-12T03:04:19.048Z,4.70
2022-11-12T03:07:04.657Z,4.80
2022-11-12T03:09:50.853Z,4.80
2022-11-12T03:12:36.636Z,4.70
2022-11-12T03:15:22.731Z,4.80
2022-11-12T03:18:08.777Z,4.90
2022-11-12T03:20:54.668Z,4.90
2022-11-12T03:23:40.386Z,5.00
2022-11-12T03:26:26.373Z,5.00
2022-11-12T03:29:12.431Z,5.00
2022-11-12T03:31:58.655Z,5.00
2022-11-12T03:34:44.811Z,4.90
2022-11-12T03:37:30.724Z,4.90
2022-11-12T03:40:17.969Z,4.90
2022-11-12T03:43:04.046Z,5.00
2022-11-12T03:45:49.658Z,5.00
2022-11-12T03:48:35.719Z,4.90
2022-11-12T03:51:22.256Z,4.90
2022-11-12T03:54:08.133Z,5.00
2022-11-12T03:56:54.076Z,4.90
2022-11-12T03:59:39.881Z,4.90
2022-11-12T04:02:26.718Z,4.90
2022-11-12T04:05:31.992Z,4.80
2022-11-12T04:08:35.925Z,4.80
2022-11-12T04:11:21.479Z,4.70
2022-11-12T04:14:07.691Z,4.80
2022-11-12T04:17:12.158Z,4.80
2022-11-12T04:20:16.539Z,4.80
2022-11-12T04:23:02.483Z,4.70
2022-11-12T04:26:07.606Z,4.60
2022-11-12T04:29:11.958Z,4.60
2022-11-12T04:31:57.658Z,4.60
2022-11-12T04:34:43.835Z,4.60
2022-11-12T04:37:44.463Z,4.50
2022-11-12T04:40:49.564Z,4.50
2022-11-12T04:43:54.017Z,4.60
2022-11-12T04:46:40.052Z,4.60
2022-11-12T04:49:29.191Z,4.70
2022-11-12T04:52:15.779Z,4.70
2022-11-12T04:55:01.939Z,4.80
2022-11-12T04:57:47.979Z,4.80
2022-11-12T05:00:33.675Z,4.80
2022-11-12T05:03:19.467Z,4.80
2022-11-12T05:06:26.904Z,4.90
2022-11-12T05:09:12.703Z,4.90
2022-11-12T05:11:58.733Z,5.00
2022-11-12T05:14:44.687Z,4.80
2022-11-12T05:17:30.289Z,4.70
2022-11-12T05:20:18.007Z,4.70
2022-11-12T05:23:07.783Z,4.70
2022-11-12T05:25:53.557Z,4.70
2022-11-12T05:28:39.341Z,4.70
2022-11-12T05:31:25.479Z,4.70
2022-11-12T05:34:11.253Z,4.50
2022-11-12T05:36:57.262Z,4.30
2022-11-12T05:39:43.019Z,4.20
2022-11-12T05:42:28.942Z,4.20
2022-11-12T05:45:15.046Z,4.20
2022-11-12T05:48:00.936Z,4.20
2022-11-12T05:51:11.975Z,4.30
2022-11-12T05:53:56.764Z,4.40
2022-11-12T05:56:42.751Z,4.30
2022-11-12T05:59:28.490Z,4.40
2022-11-12T06:02:14.667Z,4.30
2022-11-12T06:05:00.708Z,4.40
2022-11-12T06:07:46.489Z,4.40
2022-11-12T06:10:35.631Z,4.40
2022-11-12T06:13:23.925Z,4.50
2022-11-12T06:16:10.292Z,4.50
2022-11-12T06:18:56.470Z,4.50
2022-11-12T06:21:42.140Z,4.50
2022-11-12T06:24:35.093Z,4.40
2022-11-12T06:27:24.067Z,4.50
2022-11-12T06:30:10.673Z,4.40
2022-11-12T06:32:56.614Z,4.40
2022-11-12T06:35:43.266Z,4.30
2022-11-12T06:38:34.838Z,4.40
2022-11-12T06:41:20.972Z,4.30
2022-11-12T06:44:06.974Z,4.30
2022-11-12T06:46:53.040Z,4.20
2022-11-12T06:49:39.362Z,4.30
2022-11-12T06:52:25.445Z,4.30
2022-11-12T06:55:11.456Z,4.50
2022-11-12T06:57:57.803Z,4.50
2022-11-12T07:00:44.279Z,4.50
2022-11-12T07:03:30.190Z,4.60
2022-11-12T07:06:20.146Z,4.60
2022-11-12T07:09:07.240Z,4.60
2022-11-12T07:11:53.359Z,4.60
2022-11-12T07:14:39.173Z,4.90
2022-11-12T07:17:24.946Z,5.30
2022-11-12T07:20:11.210Z,5.40
2022-11-12T07:23:00.620Z,6.10
2022-11-12T07:25:46.302Z,7.00
2022-11-12T07:28:32.740Z,7.80
2022-11-12T07:31:20.135Z,8.20
2022-11-12T07:34:06.116Z,7.80
2022-11-12T07:36:51.866Z,7.80
2022-11-12T07:39:37.619Z,7.30
2022-11-12T07:42:23.823Z,6.90
2022-11-12T07:45:10.145Z,6.70
2022-11-12T07:47:59.318Z,6.80
2022-11-12T07:50:45.234Z,6.80
2022-11-12T07:53:31.839Z,6.80
2022-11-12T07:56:20.564Z,6.90
2022-11-12T07:59:07.761Z,7.10
2022-11-12T08:01:53.607Z,7.30
2022-11-12T08:04:39.529Z,8.00
2022-11-12T08:07:25.587Z,8.80
2022-11-12T08:10:11.352Z,9.40
2022-11-12T08:12:57.430Z,9.10
2022-11-12T08:15:46.779Z,9.30
2022-11-12T08:18:35.386Z,9.50
2022-11-12T08:21:21.114Z,9.20
2022-11-12T08:24:07.425Z,8.80
2022-11-12T08:26:52.944Z,8.80
2022-11-12T08:29:38.995Z,8.80
2022-11-12T08:32:25.059Z,9.00
2022-11-12T08:35:10.970Z,8.90
2022-11-12T08:38:01.538Z,8.90
2022-11-12T08:40:47.680Z,9.20
2022-11-12T08:43:34.017Z,9.80
2022-11-12T08:46:20.139Z,10.40
2022-11-12T08:49:06.332Z,11.50
2022-11-12T08:51:52.291Z,12.70
2022-11-12T08:54:38.215Z,13.60
2022-11-12T08:57:24.154Z,14.40
2022-11-12T09:00:11.899Z,15.20
2022-11-12T09:03:00.870Z,15.10
2022-11-12T09:05:47.648Z,15.70
2022-11-12T09:08:35.833Z,15.60
2022-11-12T09:11:21.922Z,15.90
2022-11-12T09:14:08.344Z,16.40
2022-11-12T09:16:55.050Z,16.60
2022-11-12T09:19:42.981Z,16.10
2022-11-12T09:22:29.437Z,16.40
2022-11-12T09:25:15.397Z,17.30
2022-11-12T09:28:15.638Z,17.30
2022-11-12T09:31:02.414Z,16.80
2022-11-12T09:33:48.464Z,17.30
2022-11-12T09:36:39.541Z,18.70
2022-11-12T09:39:25.830Z,18.80
2022-11-12T09:42:18.781Z,18.60
2022-11-12T09:45:13.148Z,18.30
2022-11-12T09:48:06.104Z,17.70
2022-11-12T09:51:10.313Z,16.90
2022-11-12T09:54:13.763Z,17.10
2022-11-12T09:56:59.609Z,16.90
2022-11-12T09:59:45.604Z,17.00
2022-11-12T10:03:02.016Z,17.50
2022-11-12T10:05:58.277Z,17.80
2022-11-12T10:09:16.389Z,18.20
2022-11-12T10:12:32.730Z,18.70
2022-11-12T10:15:57.547Z,17.40
2022-11-12T10:19:15.471Z,18.00
2022-11-12T10:22:30.576Z,18.70
2022-11-12T10:25:19.112Z,18.20
2022-11-12T10:28:38.066Z,17.70
2022-11-12T10:31:24.416Z,17.00
2022-11-12T10:34:19.209Z,16.60
2022-11-12T10:37:19.154Z,16.60
2022-11-12T10:40:27.146Z,16.10
2022-11-12T10:43:15.946Z,14.90
2022-11-12T10:46:22.454Z,14.00
2022-11-12T10:49:24.133Z,13.40
2022-11-12T10:52:24.244Z,13.20
2022-11-12T10:55:18.228Z,13.10
2022-11-12T10:58:10.154Z,12.90
2022-11-12T11:01:00.632Z,12.80
2022-11-12T11:03:53.821Z,12.90
2022-11-12T11:06:40.166Z,12.70
2022-11-12T11:09:26.756Z,12.50
2022-11-12T11:12:27.832Z,12.40
2022-11-12T11:15:23.010Z,12.60
2022-11-12T11:18:12.699Z,12.60
2022-11-12T11:21:17.072Z,12.60
2022-11-12T11:24:38.151Z,12.70
2022-11-12T11:28:09.248Z,12.60
2022-11-12T11:31:05.650Z,12.50
2022-11-12T11:34:28.786Z,12.70
2022-11-12T11:37:27.349Z,12.80
2022-11-12T11:40:19.515Z,12.80
2022-11-12T11:43:05.264Z,12.70
2022-11-12T11:46:15.960Z,12.80
2022-11-12T11:49:36.971Z,12.80
2022-11-12T11:52:41.259Z,12.90
2022-11-12T11:56:01.058Z,12.80
2022-11-12T11:59:48.578Z,12.90
2022-11-12T12:02:49.473Z,12.90
2022-11-12T12:05:59.060Z,12.90
2022-11-12T12:08:54.675Z,12.80
2022-11-12T12:11:54.967Z,12.80
2022-11-12T12:15:16.410Z,12.70
2022-11-12T12:18:21.001Z,12.80
2022-11-12T12:21:13.459Z,12.90
2022-11-12T12:24:48.633Z,12.90
2022-11-12T12:27:38.464Z,13.00
2022-11-12T12:30:25.321Z,13.00
2022-11-12T12:33:34.984Z,13.00
2022-11-12T12:36:25.692Z,12.90
2022-11-12T12:39:43.619Z,13.00
2022-11-12T12:42:42.774Z,13.00
2022-11-12T12:45:46.367Z,13.00
2022-11-12T12:48:35.485Z,13.00
2022-11-12T12:51:22.498Z,13.00
2022-11-12T12:54:36.279Z,12.90
2022-11-12T12:57:32.176Z,13.00
2022-11-12T13:00:39.020Z,12.90
2022-11-12T13:04:08.829Z,13.00
2022-11-12T13:06:55.376Z,13.00
2022-11-12T13:09:41.498Z,13.00
2022-11-12T13:13:04.264Z,13.00
2022-11-12T13:15:57.951Z,13.00
2022-11-12T13:18:43.536Z,13.00
2022-11-12T13:21:30.013Z,13.00
2022-11-12T13:24:15.861Z,13.00
2022-11-12T13:27:01.728Z,13.10
2022-11-12T13:29:47.922Z,13.10
2022-11-12T13:32:38.130Z,13.00
2022-11-12T13:35:26.926Z,13.10
2022-11-12T13:38:16.505Z,13.10
2022-11-12T13:41:40.129Z,13.10
2022-11-12T13:44:27.873Z,13.20
2022-11-12T13:47:21.792Z,13.10
2022-11-12T13:50:13.191Z,13.00
2022-11-12T13:53:00.175Z,13.20
2022-11-12T13:55:50.224Z,13.20
2022-11-12T13:58:36.497Z,13.10
2022-11-12T14:01:24.261Z,13.10
2022-11-12T14:04:16.745Z,13.10
2022-11-12T14:07:20.760Z,13.10
2022-11-12T14:10:18.382Z,13.00
2022-11-12T14:13:34.836Z,13.10
2022-11-12T14:16:35.771Z,13.20
2022-11-12T14:20:04.016Z,13.10
2022-11-12T14:22:50.240Z,13.00
2022-11-12T14:25:55.660Z,12.90
2022-11-12T14:28:41.587Z,12.90
2022-11-12T14:31:27.511Z,13.00
2022-11-12T14:34:27.182Z,12.90
2022-11-12T14:37:39.807Z,12.80
2022-11-12T14:40:31.290Z,12.90
2022-11-12T14:43:38.590Z,12.90
2022-11-12T14:46:27.274Z,12.80
2022-11-12T14:49:44.965Z,12.80
2022-11-12T14:52:37.022Z,12.60
2022-11-12T14:55:33.367Z,12.50
2022-11-12T14:58:21.137Z,12.40
2022-11-12T15:04:45.710Z,12.20
2022-11-12T15:07:35.591Z,12.20
2022-11-12T15:10:33.835Z,12.10
2022-11-12T15:13:22.056Z,12.10
2022-11-12T15:16:09.914Z,12.00
2022-11-12T15:19:23.170Z,11.90
2022-11-12T15:22:20.933Z,11.80
2022-11-12T15:25:22.762Z,11.60
2022-11-12T15:28:22.485Z,11.50
2022-11-12T15:31:18.592Z,11.20
2022-11-12T15:34:24.584Z,11.00
2022-11-12T15:37:24.179Z,10.90
2022-11-12T15:40:18.609Z,10.80
2022-11-12T15:43:31.429Z,10.60
2022-11-12T15:46:17.561Z,10.50
2022-11-12T15:49:03.472Z,10.30
2022-11-12T15:51:49.044Z,10.20
2022-11-12T15:54:40.654Z,10.00
2022-11-12T15:57:30.453Z,10.00
2022-11-12T16:00:39.805Z,9.90
2022-11-12T16:03:26.111Z,9.70
2022-11-12T16:06:12.735Z,9.60
2022-11-12T16:08:58.638Z,9.50
2022-11-12T16:11:44.567Z,9.30
2022-11-12T16:14:30.892Z,9.20
2022-11-12T16:17:18.680Z,9.10
2022-11-12T16:20:21.195Z,9.00
2022-11-12T16:23:07.066Z,8.90
2022-11-12T16:25:52.908Z,8.80
2022-11-12T16:28:39.091Z,8.70
2022-11-12T16:31:24.813Z,8.70
2022-11-12T16:34:11.338Z,8.60
2022-11-12T16:36:58.124Z,8.60
2022-11-12T16:39:43.946Z,8.60
2022-11-12T16:42:30.045Z,8.50
2022-11-12T16:45:23.651Z,8.50
2022-11-12T16:48:21.602Z,8.40
2022-11-12T16:51:15.387Z,8.40
2022-11-12T16:54:01.029Z,8.40
2022-11-12T16:56:47.378Z,8.50
2022-11-12T16:59:33.219Z,8.50
2022-11-12T17:02:19.182Z,8.50
2022-11-12T17:05:08.335Z,8.50
2022-11-12T17:07:58.010Z,8.50
2022-11-12T17:10:43.744Z,8.40
2022-11-12T17:13:30.061Z,8.30
2022-11-12T17:16:16.066Z,8.30
2022-11-12T17:19:02.774Z,8.30
2022-11-12T17:21:48.753Z,8.20
2022-11-12T17:24:34.828Z,8.20
2022-11-12T17:27:20.975Z,8.20
2022-11-12T17:30:07.173Z,8.10
2022-11-12T17:32:52.983Z,8.10
2022-11-12T17:35:39.087Z,8.10
2022-11-12T17:38:24.900Z,8.10
2022-11-12T17:41:11.064Z,8.00
2022-11-12T17:43:58.423Z,7.90
2022-11-12T17:46:45.457Z,7.80
2022-11-12T17:49:31.312Z,7.80
2022-11-12T17:52:17.239Z,7.70
2022-11-12T17:55:03.311Z,7.80
2022-11-12T17:57:49.341Z,7.80
2022-11-12T18:00:37.343Z,8.00
2022-11-12T18:03:23.255Z,8.30
2022-11-12T18:06:28.104Z,8.40
2022-11-12T18:09:15.292Z,8.50
2022-11-12T18:12:01.352Z,8.50
2022-11-12T18:14:46.980Z,8.50
2022-11-12T18:17:36.359Z,8.50
2022-11-12T18:20:22.131Z,8.50
2022-11-12T18:23:08.209Z,8.50
2022-11-12T18:25:53.934Z,8.50
2022-11-12T18:28:39.748Z,8.50
2022-11-12T18:31:27.269Z,8.50
2022-11-12T18:34:14.949Z,8.40
2022-11-12T18:37:00.647Z,8.40
2022-11-12T18:39:46.588Z,8.30
2022-11-12T18:42:32.426Z,8.30
2022-11-12T18:45:18.517Z,8.30
2022-11-12T18:48:04.756Z,8.20
2022-11-12T18:50:51.334Z,8.30
2022-11-12T18:53:38.456Z,8.30
2022-11-12T18:56:24.481Z,8.30
2022-11-12T18:59:13.087Z,8.30
2022-11-12T19:01:59.293Z,8.30
2022-11-12T19:04:45.610Z,8.30
2022-11-12T19:07:31.606Z,8.30
2022-11-12T19:10:17.441Z,8.30
2022-11-12T19:13:03.858Z,8.30
2022-11-12T19:15:49.600Z,8.20
2022-11-12T19:18:35.571Z,8.20
2022-11-12T19:21:23.577Z,8.10
2022-11-12T19:24:09.276Z,8.10
2022-11-12T19:26:55.245Z,8.10
2022-11-12T19:29:40.904Z,8.10
2022-11-12T19:32:26.717Z,8.10
2022-11-12T19:35:12.709Z,8.20
2022-11-12T19:37:58.607Z,8.30
2022-11-12T19:40:44.455Z,8.40
2022-11-12T19:43:30.546Z,8.50
2022-11-12T19:46:17.065Z,8.50
2022-11-12T19:49:03.706Z,8.70
2022-11-12T19:51:49.475Z,8.80
2022-11-12T19:54:35.265Z,8.80
2022-11-12T19:57:21.465Z,9.00
2022-11-12T20:00:08.222Z,9.00
2022-11-12T20:02:53.769Z,9.10
2022-11-12T20:05:39.589Z,9.00
2022-11-12T20:08:26.044Z,8.90
2022-11-12T20:11:15.584Z,8.90
2022-11-12T20:14:01.883Z,8.80
2022-11-12T20:16:50.266Z,8.80
2022-11-12T20:19:35.962Z,8.80
2022-11-12T20:22:21.653Z,8.80
2022-11-12T20:25:07.742Z,8.90
2022-11-12T20:27:53.421Z,8.90
2022-11-12T20:30:39.746Z,8.90
2022-11-12T20:33:26.064Z,8.90
2022-11-12T20:36:16.334Z,8.80
2022-11-12T20:39:03.034Z,8.80
2022-11-12T20:41:48.971Z,8.80
2022-11-12T20:44:34.731Z,8.80
2022-11-12T20:47:20.649Z,8.80
2022-11-12T20:50:06.773Z,8.80
2022-11-12T20:52:52.470Z,8.90
2022-11-12T20:55:38.748Z,8.90
2022-11-12T20:58:24.620Z,8.80
2022-11-12T21:01:13.752Z,8.90
2022-11-12T21:03:59.363Z,8.90
2022-11-12T21:06:45.164Z,8.90
2022-11-12T21:09:31.260Z,8.90
2022-11-12T21:12:16.987Z,8.90
2022-11-12T21:15:03.205Z,8.80
2022-11-12T21:17:51.485Z,8.80
2022-11-12T21:20:37.399Z,8.80
2022-11-12T21:23:23.675Z,8.80
2022-11-12T21:26:15.062Z,8.70
2022-11-12T21:29:00.653Z,8.70
2022-11-12T21:31:46.662Z,8.60
2022-11-12T21:34:32.698Z,8.50
2022-11-12T21:37:19.929Z,8.40
2022-11-12T21:40:06.123Z,8.40
2022-11-12T21:42:52.165Z,8.30
2022-11-12T21:45:40.529Z,8.30
2022-11-12T21:48:28.980Z,8.30
2022-11-12T21:51:19.742Z,8.50
2022-11-12T21:54:07.156Z,8.60
2022-11-12T21:56:52.768Z,8.50
2022-11-12T21:59:38.684Z,8.50
2022-11-12T22:02:24.625Z,8.40
2022-11-12T22:05:10.791Z,8.50
2022-11-12T22:07:59.010Z,8.40
2022-11-12T22:10:44.712Z,8.30
2022-11-12T22:13:31.228Z,8.30
2022-11-12T22:16:21.345Z,8.20
2022-11-12T22:19:07.033Z,8.10
2022-11-12T22:21:52.816Z,8.20
2022-11-12T22:24:38.918Z,8.00
2022-11-12T22:27:31.272Z,8.00
2022-11-12T22:30:17.891Z,7.90
2022-11-12T22:33:04.079Z,7.80
2022-11-12T22:35:49.696Z,7.70
2022-11-12T22:38:41.180Z,7.60
2022-11-12T22:41:29.742Z,7.60
2022-11-12T22:44:15.730Z,7.60
2022-11-12T22:47:01.705Z,7.50
2022-11-12T22:49:48.402Z,7.60
2022-11-12T22:52:34.268Z,7.60
2022-11-12T22:55:20.259Z,7.60
2022-11-12T22:58:06.126Z,7.60
2022-11-12T23:00:52.245Z,7.60
2022-11-12T23:03:38.028Z,7.70
2022-11-12T23:06:24.813Z,7.70
2022-11-12T23:09:16.039Z,7.70
2022-11-12T23:12:02.089Z,7.70
2022-11-12T23:14:48.056Z,7.80
2022-11-12T23:17:33.937Z,7.70
2022-11-12T23:20:19.855Z,7.70
2022-11-12T23:23:05.608Z,7.60
2022-11-12T23:25:51.508Z,7.60
2022-11-12T23:28:37.574Z,7.50
2022-11-12T23:31:26.396Z,7.60
2022-11-12T23:34:12.875Z,7.60
2022-11-12T23:36:58.769Z,7.60
2022-11-12T23:39:44.447Z,7.70
2022-11-12T23:42:30.508Z,7.70
2022-11-12T23:45:16.660Z,7.70
2022-11-12T23:48:02.295Z,7.70
2022-11-12T23:51:12.808Z,7.70
2022-11-12T23:53:58.787Z,7.80
2022-11-12T23:56:44.614Z,7.70
2022-11-12T23:59:30.528Z,7.60
